createdAt,value
2022-10-02T00:00:08.282Z,100.00
2022-10-02T00:02:39.283Z,100.00
2022-10-02T00:05:12.040Z,100.00
2022-10-02T00:07:44.344Z,100.00
2022-10-02T00:10:18.638Z,100.00
2022-10-02T00:12:47.427Z,100.00
2022-10-02T00:15:18.180Z,100.00
2022-10-02T00:17:49.217Z,100.00
2022-10-02T00:20:18.707Z,100.00
2022-10-02T00:22:52.475Z,100.00
2022-10-02T00:25:26.950Z,100.00
2022-10-02T00:28:18.969Z,100.00
2022-10-02T00:31:01.547Z,100.00
2022-10-02T00:33:37.433Z,100.00
2022-10-02T00:36:16.357Z,100.00
2022-10-02T00:38:56.507Z,100.00
2022-10-02T00:41:54.018Z,100.00
2022-10-02T00:44:41.708Z,100.00
2022-10-02T00:47:17.662Z,100.00
2022-10-02T00:50:10.640Z,100.00
2022-10-02T00:52:54.886Z,100.00
2022-10-02T00:55:37.412Z,100.00
2022-10-02T00:58:23.452Z,100.00
2022-10-02T01:01:00.910Z,100.00
2022-10-02T01:03:34.378Z,100.00
2022-10-02T01:06:01.220Z,100.00
2022-10-02T01:08:28.254Z,100.00
2022-10-02T01:10:54.996Z,100.00
2022-10-02T01:13:23.367Z,100.00
2022-10-02T01:15:54.351Z,100.00
2022-10-02T01:18:21.179Z,100.00
2022-10-02T01:20:50.302Z,100.00
2022-10-02T01:23:24.758Z,100.00
2022-10-02T01:25:53.067Z,100.00
2022-10-02T01:28:20.994Z,100.00
2022-10-02T01:30:52.109Z,100.00
2022-10-02T01:33:19.382Z,100.00
2022-10-02T01:35:46.300Z,100.00
2022-10-02T01:38:17.113Z,100.00
2022-10-02T01:40:44.269Z,100.00
2022-10-02T01:43:16.578Z,100.00
2022-10-02T01:46:01.080Z,100.00
2022-10-02T01:48:42.053Z,100.00
2022-10-02T01:51:25.301Z,100.00
2022-10-02T01:54:04.954Z,100.00
2022-10-02T01:56:40.358Z,100.00
2022-10-02T01:59:20.153Z,100.00
2022-10-02T02:02:00.664Z,100.00
2022-10-02T02:04:33.073Z,100.00
2022-10-02T02:07:07.019Z,100.00
2022-10-02T02:09:41.992Z,100.00
2022-10-02T02:12:14.729Z,100.00
2022-10-02T02:14:47.897Z,100.00
2022-10-02T02:17:19.473Z,100.00
2022-10-02T02:19:51.116Z,100.00
2022-10-02T02:22:22.756Z,100.00
2022-10-02T02:24:55.025Z,100.00
2022-10-02T02:27:25.872Z,100.00
2022-10-02T02:30:00.363Z,100.00
2022-10-02T02:32:31.067Z,100.00
2022-10-02T02:35:01.614Z,100.00
2022-10-02T02:37:32.189Z,100.00
2022-10-02T02:40:03.295Z,100.00
2022-10-02T02:42:33.006Z,100.00
2022-10-02T02:45:07.350Z,100.00
2022-10-02T02:47:38.520Z,100.00
2022-10-02T02:50:11.187Z,100.00
2022-10-02T02:52:42.341Z,100.00
2022-10-02T02:55:13.457Z,100.00
2022-10-02T02:57:45.977Z,100.00
2022-10-02T03:00:15.784Z,100.00
2022-10-02T03:02:42.909Z,100.00
2022-10-02T03:05:14.164Z,100.00
2022-10-02T03:07:46.308Z,100.00
2022-10-02T03:10:18.743Z,100.00
2022-10-02T03:12:57.217Z,100.00
2022-10-02T03:15:35.323Z,100.00
2022-10-02T03:18:19.761Z,100.00
2022-10-02T03:21:00.147Z,100.00
2022-10-02T03:23:35.725Z,100.00
2022-10-02T03:26:08.573Z,100.00
2022-10-02T03:28:54.813Z,100.00
2022-10-02T03:31:27.508Z,100.00
2022-10-02T03:33:55.381Z,100.00
2022-10-02T03:36:22.701Z,100.00
2022-10-02T03:39:00.736Z,100.00
2022-10-02T03:41:36.849Z,100.00
2022-10-02T03:44:03.989Z,100.00
2022-10-02T03:46:32.098Z,100.00
2022-10-02T03:48:58.910Z,100.00
2022-10-02T03:51:26.263Z,100.00
2022-10-02T03:53:53.127Z,100.00
2022-10-02T03:56:36.040Z,100.00
2022-10-02T03:59:10.518Z,100.00
2022-10-02T04:01:48.213Z,100.00
2022-10-02T04:04:18.424Z,100.00
2022-10-02T04:06:48.581Z,100.00
2022-10-02T04:09:23.250Z,100.00
2022-10-02T04:11:56.714Z,100.00
2022-10-02T04:14:29.908Z,100.00
2022-10-02T04:17:03.585Z,100.00
2022-10-02T04:19:38.014Z,100.00
2022-10-02T04:22:10.657Z,100.00
2022-10-02T04:24:43.334Z,100.00
2022-10-02T04:27:14.999Z,100.00
2022-10-02T04:29:46.250Z,100.00
2022-10-02T04:32:16.762Z,100.00
2022-10-02T04:34:43.493Z,100.00
2022-10-02T04:37:32.947Z,100.00
2022-10-02T04:40:06.355Z,100.00
2022-10-02T04:42:49.263Z,100.00
2022-10-02T04:45:32.310Z,100.00
2022-10-02T04:48:26.359Z,100.00
2022-10-02T04:51:00.574Z,100.00
2022-10-02T04:53:45.603Z,100.00
2022-10-02T04:56:41.389Z,100.00
2022-10-02T04:59:22.400Z,100.00
2022-10-02T05:02:05.864Z,100.00
2022-10-02T05:04:55.012Z,100.00
2022-10-02T05:07:45.856Z,100.00
2022-10-02T05:10:37.346Z,100.00
2022-10-02T05:13:11.580Z,100.00
2022-10-02T05:15:51.030Z,100.00
2022-10-02T05:18:29.905Z,100.00
2022-10-02T05:21:13.325Z,100.00
2022-10-02T05:24:02.275Z,100.00
2022-10-02T05:26:50.373Z,100.00
2022-10-02T05:29:31.273Z,100.00
2022-10-02T05:32:16.730Z,100.00
2022-10-02T05:35:09.700Z,100.00
2022-10-02T05:37:53.139Z,100.00
2022-10-02T05:40:26.335Z,100.00
2022-10-02T05:43:02.185Z,100.00
2022-10-02T05:45:35.079Z,100.00
2022-10-02T05:48:08.277Z,100.00
2022-10-02T05:50:38.291Z,100.00
2022-10-02T05:53:14.383Z,100.00
2022-10-02T05:55:46.989Z,100.00
2022-10-02T05:58:19.900Z,100.00
2022-10-02T06:00:51.910Z,100.00
2022-10-02T06:03:24.539Z,100.00
2022-10-02T06:05:54.391Z,100.00
2022-10-02T06:08:29.692Z,100.00
2022-10-02T06:11:03.095Z,100.00
2022-10-02T06:13:33.795Z,100.00
2022-10-02T06:16:17.405Z,100.00
2022-10-02T06:18:47.792Z,100.00
2022-10-02T06:21:25.387Z,100.00
2022-10-02T06:23:56.170Z,100.00
2022-10-02T06:26:28.999Z,100.00
2022-10-02T06:29:00.366Z,100.00
2022-10-02T06:31:38.113Z,100.00
2022-10-02T06:34:07.381Z,100.00
2022-10-02T06:37:03.378Z,100.00
2022-10-02T06:39:57.463Z,100.00
2022-10-02T06:42:39.023Z,100.00
2022-10-02T06:45:16.019Z,100.00
2022-10-02T06:48:00.505Z,100.00
2022-10-02T06:50:48.569Z,100.00
2022-10-02T06:53:34.551Z,100.00
2022-10-02T06:56:21.147Z,100.00
2022-10-02T06:58:58.399Z,100.00
2022-10-02T07:01:35.605Z,100.00
2022-10-02T07:04:19.115Z,100.00
2022-10-02T07:07:04.703Z,100.00
2022-10-02T07:10:06.350Z,100.00
2022-10-02T07:12:59.015Z,100.00
2022-10-02T07:15:52.167Z,100.00
2022-10-02T07:18:32.753Z,100.00
2022-10-02T07:21:07.328Z,100.00
2022-10-02T07:23:43.777Z,100.00
2022-10-02T07:26:42.861Z,100.00
2022-10-02T07:29:22.393Z,100.00
2022-10-02T07:32:01.388Z,100.00
2022-10-02T07:34:39.807Z,100.00
2022-10-02T07:37:22.087Z,100.00
2022-10-02T07:40:05.367Z,100.00
2022-10-02T07:42:54.508Z,100.00
2022-10-02T07:45:37.074Z,100.00
2022-10-02T07:48:18.483Z,100.00
2022-10-02T07:51:00.964Z,100.00
2022-10-02T07:53:34.531Z,100.00
2022-10-02T07:56:03.986Z,100.00
2022-10-02T07:58:34.999Z,100.00
2022-10-02T08:01:23.640Z,100.00
2022-10-02T08:04:25.046Z,100.00
2022-10-02T08:13:18.441Z,100.00
2022-10-02T08:17:33.084Z,100.00
2022-10-02T08:19:50.600Z,100.00
2022-10-02T08:22:50.325Z,100.00
2022-10-02T08:25:59.665Z,100.00
2022-10-02T08:29:45.538Z,100.00
2022-10-02T08:31:56.205Z,100.00
2022-10-02T08:34:34.695Z,100.00
2022-10-02T08:43:56.898Z,100.00
2022-10-02T08:47:12.210Z,100.00
2022-10-02T08:50:16.638Z,100.00
2022-10-02T08:53:13.625Z,100.00
2022-10-02T08:56:05.052Z,100.00
2022-10-02T08:59:03.989Z,100.00
2022-10-02T09:02:17.908Z,100.00
2022-10-02T09:05:24.744Z,100.00
2022-10-02T09:09:03.424Z,100.00
2022-10-02T09:12:21.661Z,100.00
2022-10-02T09:15:54.725Z,100.00
2022-10-02T09:18:21.455Z,100.00
2022-10-02T09:21:15.252Z,100.00
2022-10-02T09:24:23.313Z,100.00
2022-10-02T09:27:12.186Z,100.00
2022-10-02T09:30:18.949Z,100.00
2022-10-02T09:33:23.072Z,100.00
2022-10-02T09:36:21.224Z,100.00
2022-10-02T09:39:20.444Z,100.00
2022-10-02T09:42:16.174Z,100.00
2022-10-02T09:45:28.036Z,100.00
2022-10-02T09:48:37.768Z,100.00
2022-10-02T09:51:36.551Z,100.00
2022-10-02T09:54:33.320Z,100.00
2022-10-02T09:57:31.695Z,100.00
2022-10-02T10:00:35.706Z,100.00
2022-10-02T10:03:52.652Z,99.42
2022-10-02T10:07:10.815Z,100.00
2022-10-02T10:10:14.521Z,100.00
2022-10-02T10:13:17.761Z,100.00
2022-10-02T10:16:16.404Z,100.00
2022-10-02T10:19:16.171Z,100.00
2022-10-02T10:22:21.703Z,100.00
2022-10-02T10:25:21.435Z,100.00
2022-10-02T10:28:30.690Z,100.00
2022-10-02T10:31:32.416Z,99.54
2022-10-02T10:34:39.300Z,100.00
2022-10-02T10:37:08.089Z,100.00
2022-10-02T10:40:01.598Z,100.00
2022-10-02T10:43:07.842Z,100.00
2022-10-02T10:45:56.538Z,100.00
2022-10-02T10:48:34.607Z,100.00
2022-10-02T10:51:22.174Z,100.00
2022-10-02T10:54:24.894Z,100.00
2022-10-02T10:56:57.177Z,100.00
2022-10-02T10:59:52.157Z,100.00
2022-10-02T11:02:58.470Z,100.00
2022-10-02T11:06:01.404Z,100.00
2022-10-02T11:08:49.828Z,100.00
2022-10-02T11:11:21.855Z,100.00
2022-10-02T11:14:04.655Z,100.00
2022-10-02T11:17:02.377Z,100.00
2022-10-02T11:19:44.739Z,100.00
2022-10-02T11:22:42.692Z,100.00
2022-10-02T11:25:22.326Z,100.00
2022-10-02T11:28:45.596Z,100.00
2022-10-02T11:31:30.144Z,100.00
2022-10-02T11:34:23.882Z,100.00
2022-10-02T11:37:06.511Z,100.00
2022-10-02T11:40:09.017Z,99.37
2022-10-02T11:43:07.121Z,100.00
2022-10-02T11:46:08.223Z,98.90
2022-10-02T11:49:10.333Z,100.00
2022-10-02T11:52:10.282Z,100.00
2022-10-02T11:54:58.510Z,100.00
2022-10-02T11:57:32.696Z,100.00
2022-10-02T12:00:12.610Z,100.00
2022-10-02T12:02:47.279Z,100.00
2022-10-02T12:05:27.301Z,99.00
2022-10-02T12:08:00.392Z,97.66
2022-10-02T12:10:33.529Z,100.00
2022-10-02T12:13:18.670Z,99.93
2022-10-02T12:15:53.908Z,92.43
2022-10-02T12:18:35.896Z,97.29
2022-10-02T12:21:23.402Z,96.57
2022-10-02T12:24:06.022Z,100.00
2022-10-02T12:26:47.721Z,95.88
2022-10-02T12:29:31.615Z,96.41
2022-10-02T12:35:37.715Z,91.06
2022-10-02T12:38:21.458Z,92.42
2022-10-02T12:41:01.497Z,95.12
2022-10-02T12:44:11.134Z,99.29
2022-10-02T12:47:16.613Z,100.00
2022-10-02T12:50:03.297Z,100.00
2022-10-02T12:53:14.602Z,100.00
2022-10-02T12:56:27.077Z,98.00
2022-10-02T12:59:10.177Z,95.15
2022-10-02T13:02:33.073Z,96.78
2022-10-02T13:05:38.887Z,97.15
2022-10-02T13:08:40.165Z,95.30
2022-10-02T13:11:30.704Z,96.17
2022-10-02T13:14:31.257Z,93.31
2022-10-02T13:17:16.576Z,95.23
2022-10-02T13:19:57.525Z,94.03
2022-10-02T13:22:42.519Z,90.84
2022-10-02T13:25:45.627Z,91.81
2022-10-02T13:28:46.256Z,93.40
2022-10-02T13:31:22.149Z,94.04
2022-10-02T13:34:10.704Z,94.29
2022-10-02T13:36:53.416Z,90.14
2022-10-02T13:39:41.122Z,88.17
2022-10-02T13:42:31.650Z,84.66
2022-10-02T13:48:33.134Z,90.67
2022-10-02T13:51:36.849Z,85.94
2022-10-02T13:57:54.499Z,93.46
2022-10-02T14:00:50.266Z,92.11
2022-10-02T14:03:42.897Z,93.06
2022-10-02T14:06:27.827Z,93.70
2022-10-02T14:09:09.571Z,93.14
2022-10-02T14:12:05.828Z,94.67
2022-10-02T14:15:23.394Z,92.19
2022-10-02T14:18:27.263Z,92.65
2022-10-02T14:21:15.292Z,91.53
2022-10-02T14:24:19.935Z,91.59
2022-10-02T14:27:14.476Z,92.88
2022-10-02T14:30:18.210Z,92.35
2022-10-02T14:33:29.711Z,89.88
2022-10-02T14:36:44.075Z,90.30
2022-10-02T14:39:57.093Z,95.21
2022-10-02T14:43:10.628Z,96.33
2022-10-02T14:46:40.102Z,99.75
2022-10-02T14:49:43.667Z,97.84
2022-10-02T14:52:43.213Z,100.00
2022-10-02T14:58:45.047Z,100.00
2022-10-02T15:04:46.870Z,98.96
2022-10-02T15:07:28.378Z,100.00
2022-10-02T15:10:15.961Z,100.00
2022-10-02T15:12:50.056Z,100.00
2022-10-02T15:15:22.575Z,100.00
2022-10-02T15:18:02.548Z,100.00
2022-10-02T15:20:40.876Z,100.00
2022-10-02T15:23:11.137Z,100.00
2022-10-02T15:26:06.350Z,100.00
2022-10-02T15:28:48.136Z,100.00
2022-10-02T15:31:56.224Z,100.00
2022-10-02T15:34:58.126Z,100.00
2022-10-02T15:37:45.675Z,100.00
2022-10-02T15:40:37.512Z,100.00
2022-10-02T15:43:36.709Z,100.00
2022-10-02T15:46:34.478Z,100.00
2022-10-02T15:49:23.021Z,100.00
2022-10-02T15:52:10.269Z,100.00
2022-10-02T15:55:08.595Z,100.00
2022-10-02T15:58:00.186Z,100.00
2022-10-02T16:00:47.017Z,100.00
2022-10-02T16:03:46.487Z,100.00
2022-10-02T16:06:47.941Z,100.00
2022-10-02T16:09:45.611Z,100.00
2022-10-02T16:12:32.961Z,100.00
2022-10-02T16:15:18.977Z,100.00
2022-10-02T16:18:29.980Z,100.00
2022-10-02T16:21:41.015Z,100.00
2022-10-02T16:24:25.735Z,100.00
2022-10-02T16:27:30.273Z,100.00
2022-10-02T16:30:36.038Z,100.00
2022-10-02T16:33:26.980Z,100.00
2022-10-02T16:36:24.980Z,100.00
2022-10-02T16:39:02.228Z,100.00
2022-10-02T16:41:36.267Z,100.00
2022-10-02T16:44:24.692Z,100.00
2022-10-02T16:46:55.606Z,100.00
2022-10-02T16:49:28.547Z,100.00
2022-10-02T16:52:04.538Z,100.00
2022-10-02T16:54:40.662Z,100.00
2022-10-02T16:57:20.829Z,100.00
2022-10-02T16:59:54.110Z,100.00
2022-10-02T17:02:26.436Z,100.00
2022-10-02T17:05:02.310Z,100.00
2022-10-02T17:07:52.007Z,100.00
2022-10-02T17:10:30.870Z,100.00
2022-10-02T17:13:06.627Z,100.00
2022-10-02T17:15:44.231Z,100.00
2022-10-02T17:18:24.700Z,100.00
2022-10-02T17:20:54.872Z,100.00
2022-10-02T17:23:28.154Z,100.00
2022-10-02T17:26:02.338Z,100.00
2022-10-02T17:28:37.670Z,100.00
2022-10-02T17:31:24.229Z,100.00
2022-10-02T17:33:54.581Z,100.00
2022-10-02T17:36:26.462Z,100.00
2022-10-02T17:39:07.754Z,100.00
2022-10-02T17:41:46.099Z,100.00
2022-10-02T17:44:23.371Z,100.00
2022-10-02T17:47:25.742Z,100.00
2022-10-02T17:50:15.598Z,100.00
2022-10-02T17:52:45.387Z,100.00
2022-10-02T17:55:30.250Z,100.00
2022-10-02T17:58:05.495Z,100.00
2022-10-02T18:00:37.484Z,100.00
2022-10-02T18:03:35.348Z,100.00
2022-10-02T18:06:31.337Z,100.00
2022-10-02T18:09:22.351Z,100.00
2022-10-02T18:12:17.679Z,100.00
2022-10-02T18:15:02.642Z,100.00
2022-10-02T18:17:47.941Z,100.00
2022-10-02T18:20:25.081Z,100.00
2022-10-02T18:23:10.593Z,100.00
2022-10-02T18:26:03.753Z,100.00
2022-10-02T18:28:42.728Z,100.00
2022-10-02T18:31:44.199Z,100.00
2022-10-02T18:34:31.566Z,100.00
2022-10-02T18:37:25.312Z,100.00
2022-10-02T18:40:07.340Z,100.00
2022-10-02T18:42:54.183Z,100.00
2022-10-02T18:45:36.724Z,100.00
2022-10-02T18:48:24.360Z,100.00
2022-10-02T18:51:15.845Z,100.00
2022-10-02T18:54:01.334Z,100.00
2022-10-02T18:56:50.235Z,100.00
2022-10-02T18:59:25.959Z,100.00
2022-10-02T19:02:05.801Z,100.00
2022-10-02T19:04:53.316Z,100.00
2022-10-02T19:07:24.506Z,100.00
2022-10-02T19:10:08.831Z,100.00
2022-10-02T19:12:42.819Z,100.00
2022-10-02T19:15:22.200Z,100.00
2022-10-02T19:17:58.829Z,100.00
2022-10-02T19:20:36.764Z,100.00
2022-10-02T19:23:06.237Z,100.00
2022-10-02T19:25:33.346Z,100.00
2022-10-02T19:28:03.221Z,100.00
2022-10-02T19:30:33.199Z,100.00
2022-10-02T19:33:06.724Z,100.00
2022-10-02T19:35:42.316Z,100.00
2022-10-02T19:38:20.608Z,100.00
2022-10-02T19:40:52.489Z,100.00
2022-10-02T19:43:26.230Z,100.00
2022-10-02T19:45:55.401Z,100.00
2022-10-02T19:48:24.486Z,100.00
2022-10-02T19:50:55.814Z,100.00
2022-10-02T19:53:24.158Z,100.00
2022-10-02T19:55:55.624Z,100.00
2022-10-02T19:58:31.036Z,100.00
2022-10-02T20:00:58.186Z,100.00
2022-10-02T20:03:26.813Z,100.00
2022-10-02T20:05:57.930Z,100.00
2022-10-02T20:08:30.676Z,100.00
2022-10-02T20:11:01.714Z,100.00
2022-10-02T20:13:37.307Z,100.00
2022-10-02T20:16:09.474Z,100.00
2022-10-02T20:18:36.274Z,100.00
2022-10-02T20:21:11.612Z,100.00
2022-10-02T20:23:42.711Z,100.00
2022-10-02T20:26:14.291Z,100.00
2022-10-02T20:28:47.822Z,100.00
2022-10-02T20:31:19.071Z,100.00
2022-10-02T20:33:49.747Z,100.00
2022-10-02T20:36:19.723Z,100.00
2022-10-02T20:38:51.300Z,100.00
2022-10-02T20:41:22.274Z,100.00
2022-10-02T20:43:54.247Z,100.00
2022-10-02T20:46:47.593Z,100.00
2022-10-02T20:49:36.841Z,100.00
2022-10-02T20:52:19.452Z,100.00
2022-10-02T20:54:56.111Z,100.00
2022-10-02T20:58:09.795Z,100.00
2022-10-02T21:00:53.744Z,100.00
2022-10-02T21:03:41.851Z,100.00
2022-10-02T21:06:52.833Z,100.00
2022-10-02T21:09:58.742Z,100.00
2022-10-02T21:12:48.951Z,100.00
2022-10-02T21:19:22.841Z,100.00
2022-10-02T21:22:35.432Z,100.00
2022-10-02T21:25:38.981Z,100.00
2022-10-02T21:28:45.148Z,100.00
2022-10-02T21:31:26.483Z,100.00
2022-10-02T21:34:07.584Z,100.00
2022-10-02T21:36:42.134Z,100.00
2022-10-02T21:39:33.312Z,100.00
2022-10-02T21:42:36.939Z,100.00
2022-10-02T21:45:46.577Z,100.00
2022-10-02T21:48:54.902Z,100.00
2022-10-02T21:51:59.646Z,100.00
2022-10-02T21:55:18.521Z,100.00
2022-10-02T21:58:30.364Z,100.00
2022-10-02T22:01:57.533Z,100.00
2022-10-02T22:04:55.174Z,100.00
2022-10-02T22:07:32.657Z,100.00
2022-10-02T22:10:05.286Z,100.00
2022-10-02T22:12:47.617Z,100.00
2022-10-02T22:15:19.356Z,100.00
2022-10-02T22:17:56.274Z,100.00
2022-10-02T22:21:08.843Z,100.00
2022-10-02T22:23:47.649Z,100.00
2022-10-02T22:26:30.551Z,100.00
2022-10-02T22:29:07.391Z,100.00
2022-10-02T22:32:00.814Z,100.00
2022-10-02T22:34:45.867Z,100.00
2022-10-02T22:37:32.497Z,100.00
2022-10-02T22:40:04.968Z,100.00
2022-10-02T22:42:39.286Z,100.00
2022-10-02T22:45:14.170Z,100.00
2022-10-02T22:47:49.666Z,100.00
2022-10-02T22:50:24.477Z,100.00
2022-10-02T22:52:54.169Z,100.00
2022-10-02T22:55:26.547Z,100.00
2022-10-02T22:58:00.230Z,100.00
2022-10-02T23:00:31.378Z,100.00
2022-10-02T23:03:04.381Z,100.00
2022-10-02T23:05:35.771Z,100.00
2022-10-02T23:08:14.903Z,100.00
2022-10-02T23:10:46.661Z,100.00
2022-10-02T23:13:21.636Z,100.00
2022-10-02T23:15:56.254Z,100.00
2022-10-02T23:18:36.254Z,100.00
2022-10-02T23:21:22.287Z,100.00
2022-10-02T23:23:54.197Z,100.00
2022-10-02T23:26:32.710Z,100.00
2022-10-02T23:29:14.724Z,100.00
2022-10-02T23:31:47.125Z,100.00
2022-10-02T23:34:23.590Z,100.00
2022-10-02T23:36:54.673Z,100.00
2022-10-02T23:39:26.485Z,100.00
2022-10-02T23:41:58.458Z,100.00
2022-10-02T23:44:34.846Z,100.00
2022-10-02T23:47:29.329Z,100.00
2022-10-02T23:49:58.102Z,100.00
2022-10-02T23:52:48.520Z,100.00
2022-10-02T23:55:27.183Z,100.00
2022-10-02T23:58:13.434Z,100.00
